Time;durP1;ratioP1;P1;durP2;ratioP2;P2;SDS_P1;SDS_P2;PMS_P1;PMS_P2;Temp;Humidity;BMP_temperature;BMP_pressure;BME280_temperature;BME280_humidity;BME280_pressure;Samples;Min_cycle;Max_cycle;Signal;HPM_P1;HPM_P2
2023/07/01 00:00:11;;;;;;;1.50;1.40;;;;;;;19.04;70.57;100717.94;6226789;28;20229;-67
2023/07/01 00:03:40;;;;;;;1.58;1.48;;;;;;;18.73;70.58;100722.00;6232836;28;20968;-67
2023/07/01 00:07:01;;;;;;;3.08;1.65;;;;;;;18.95;70.58;100710.03;6239171;28;20557;-67
2023/07/01 00:10:25;;;;;;;2.10;1.20;;;;;;;18.84;70.63;100714.13;6243902;28;20228;-66
2023/07/01 00:13:48;;;;;;;2.50;2.30;;;;;;;18.73;70.68;100705.63;6243231;28;20227;-66
2023/07/01 00:17:12;;;;;;;1.85;1.42;;;;;;;18.70;70.48;100700.53;6248527;28;20235;-67
2023/07/01 00:20:32;;;;;;;3.17;2.50;;;;;;;18.98;69.80;100699.56;6250877;28;20219;-66
2023/07/01 00:23:53;;;;;;;1.98;1.73;;;;;;;18.79;70.38;100691.19;6250937;28;20236;-66
2023/07/01 00:27:15;;;;;;;1.88;1.77;;;;;;;18.57;70.72;100693.03;6234542;28;20814;-66
2023/07/01 00:30:37;;;;;;;1.52;1.42;;;;;;;18.67;71.03;100690.00;6230315;28;20254;-66
2023/07/01 00:33:58;;;;;;;1.65;1.55;;;;;;;18.65;70.80;100679.25;6225969;28;22725;-67
2023/07/01 00:37:18;;;;;;;1.65;1.17;;;;;;;18.52;71.28;100672.81;6233936;28;20228;-66
2023/07/01 00:40:42;;;;;;;1.58;1.48;;;;;;;18.47;71.61;100672.53;6225898;28;20244;-66
2023/07/01 00:44:04;;;;;;;2.58;1.40;;;;;;;18.68;71.20;100664.38;6237981;28;20240;-66
2023/07/01 00:47:26;;;;;;;5.30;2.03;;;;;;;18.61;70.90;100664.28;6227689;28;20231;-66
2023/07/01 00:50:46;;;;;;;2.47;1.85;;;;;;;18.40;71.14;100658.75;6224271;28;20250;-66
2023/07/01 00:54:08;;;;;;;1.75;1.65;;;;;;;18.64;71.26;100657.59;6225218;28;20232;-67
2023/07/01 00:57:29;;;;;;;3.40;1.40;;;;;;;18.72;71.03;100666.53;6205639;28;20239;-66
2023/07/01 01:00:50;;;;;;;1.80;1.10;;;;;;;18.82;70.63;100653.38;6216263;28;20304;-66
2023/07/01 01:04:17;;;;;;;2.65;1.83;;;;;;;18.75;70.59;100651.63;6223825;28;20232;-66
2023/07/01 01:07:46;;;;;;;1.55;1.45;;;;;;;18.79;71.02;100642.00;6223846;28;20335;-66
2023/07/01 01:11:09;;;;;;;4.72;1.90;;;;;;;18.83;70.43;100635.13;6214339;28;21423;-66
2023/07/01 01:14:33;;;;;;;3.03;1.45;;;;;;;18.79;70.69;100628.34;6240701;28;20245;-66
2023/07/01 01:17:57;;;;;;;2.72;1.70;;;;;;;18.55;71.10;100618.66;6253015;28;20263;-66
2023/07/01 01:21:23;;;;;;;2.25;2.00;;;;;;;18.67;71.39;100622.53;6232344;28;20552;-65
2023/07/01 01:24:51;;;;;;;9.38;1.98;;;;;;;18.82;71.20;100606.94;6225097;28;20517;-65
2023/07/01 01:28:13;;;;;;;2.13;1.73;;;;;;;18.49;71.24;100611.22;6231955;28;20255;-66
2023/07/01 01:31:34;;;;;;;2.47;1.77;;;;;;;18.80;70.86;100606.31;6219776;28;20963;-66
2023/07/01 01:34:55;;;;;;;2.22;2.03;;;;;;;18.63;70.45;100599.41;6238751;28;20232;-66
2023/07/01 01:38:20;;;;;;;3.35;1.83;;;;;;;18.79;70.15;100585.50;6225197;28;20224;-67
2023/07/01 01:41:47;;;;;;;4.40;2.78;;;;;;;18.71;69.46;100591.06;6215144;28;20326;-66
2023/07/01 01:45:11;;;;;;;1.88;1.60;;;;;;;18.94;68.95;100583.50;6231124;28;20236;-66
2023/07/01 01:48:32;;;;;;;3.75;2.00;;;;;;;18.86;69.53;100580.06;6219050;28;20232;-66
2023/07/01 01:51:55;;;;;;;3.33;2.60;;;;;;;18.88;69.68;100572.53;6217568;28;20237;-67
2023/07/01 01:55:18;;;;;;;1.65;1.55;;;;;;;18.71;69.68;100566.50;6226296;28;20229;-67
2023/07/01 01:58:39;;;;;;;1.95;1.77;;;;;;;18.73;70.03;100563.59;6228573;28;20228;-67
2023/07/01 02:02:01;;;;;;;4.85;1.98;;;;;;;18.75;69.29;100561.50;6249690;28;20622;-66
2023/07/01 02:05:22;;;;;;;2.13;2.03;;;;;;;18.80;68.91;100554.41;6261342;28;20231;-67
2023/07/01 02:08:46;;;;;;;2.60;1.95;;;;;;;18.77;68.32;100554.81;6234347;28;20231;-65
2023/07/01 02:12:07;;;;;;;2.58;1.90;;;;;;;18.73;67.78;100548.03;6242930;28;20231;-67
2023/07/01 02:15:28;;;;;;;2.10;1.90;;;;;;;18.43;67.97;100540.16;6252646;28;20240;-66
2023/07/01 02:18:52;;;;;;;2.08;1.25;;;;;;;18.61;67.80;100533.22;6232567;28;22856;-66
2023/07/01 02:22:13;;;;;;;2.03;1.63;;;;;;;18.61;67.52;100526.94;6219591;28;20235;-66
2023/07/01 02:25:34;;;;;;;2.33;2.13;;;;;;;18.36;67.44;100530.00;6225489;28;20228;-66
2023/07/01 02:28:55;;;;;;;3.30;2.28;;;;;;;18.64;67.08;100526.53;6228002;28;20342;-67
2023/07/01 02:32:16;;;;;;;2.47;1.67;;;;;;;18.75;66.38;100526.00;6227185;28;20311;-66
2023/07/01 02:35:39;;;;;;;2.88;1.30;;;;;;;18.41;66.93;100512.19;6225687;28;20603;-66
2023/07/01 02:39:00;;;;;;;2.10;2.00;;;;;;;18.49;66.93;100507.50;6230367;28;20236;-66
2023/07/01 02:42:21;;;;;;;2.33;2.03;;;;;;;18.24;67.17;100509.75;6226390;28;20244;-66
2023/07/01 02:45:42;;;;;;;2.63;1.60;;;;;;;18.18;67.83;100498.75;6225993;28;20232;-65
2023/07/01 02:49:04;;;;;;;2.00;1.60;;;;;;;18.49;67.10;100491.09;6217471;28;20228;-65
2023/07/01 02:52:26;;;;;;;1.58;1.40;;;;;;;18.74;66.98;100489.63;6249833;28;20236;-65
2023/07/01 02:55:47;;;;;;;2.90;1.75;;;;;;;18.65;65.85;100495.47;6249725;28;20676;-66
2023/07/01 02:59:08;;;;;;;1.73;1.63;;;;;;;18.30;66.35;100470.75;6253760;28;20645;-67
2023/07/01 03:02:29;;;;;;;2.75;1.60;;;;;;;18.58;65.85;100472.69;6246908;28;20230;-66
2023/07/01 03:05:50;;;;;;;1.83;1.67;;;;;;;18.28;65.53;100472.84;6250123;28;20228;-66
2023/07/01 03:09:14;;;;;;;5.28;1.38;;;;;;;18.61;65.42;100473.13;6249801;28;20231;-67
2023/07/01 03:12:35;;;;;;;2.13;1.88;;;;;;;18.49;65.14;100468.41;6254886;28;20350;-66
2023/07/01 03:15:56;;;;;;;3.90;2.00;;;;;;;18.42;65.02;100459.31;6251117;28;20235;-66
2023/07/01 03:19:17;;;;;;;4.85;1.95;;;;;;;18.38;64.85;100467.03;6231749;28;20231;-67
2023/07/01 03:22:39;;;;;;;2.50;2.13;;;;;;;18.31;65.01;100461.50;6223353;28;20322;-65
2023/07/01 03:26:01;;;;;;;3.28;1.92;;;;;;;18.19;64.75;100462.25;6221879;28;20283;-65
2023/07/01 03:29:22;;;;;;;6.65;1.88;;;;;;;18.24;64.96;100459.78;6231145;28;20232;-66
2023/07/01 03:32:44;;;;;;;2.30;1.63;;;;;;;18.21;65.27;100450.09;6229348;28;20349;-66
2023/07/01 03:36:05;;;;;;;3.00;1.88;;;;;;;18.32;64.98;100455.03;6221490;28;20220;-66
2023/07/01 03:39:27;;;;;;;1.80;1.65;;;;;;;18.50;64.90;100443.66;6230731;28;20343;-66
2023/07/01 03:42:49;;;;;;;2.55;2.35;;;;;;;18.60;64.83;100443.31;6227291;28;20231;-67
2023/07/01 03:46:10;;;;;;;5.88;1.73;;;;;;;18.43;64.66;100448.19;6211673;28;20229;-66
2023/07/01 03:49:31;;;;;;;3.60;2.15;;;;;;;18.25;65.19;100435.00;6238280;28;20240;-66
2023/07/01 03:52:52;;;;;;;1.80;1.52;;;;;;;18.05;65.61;100433.97;6222279;28;20770;-66
2023/07/01 03:56:13;;;;;;;2.55;2.13;;;;;;;18.29;65.50;100430.84;6213342;28;20255;-65
2023/07/01 03:59:35;;;;;;;2.45;1.67;;;;;;;18.05;65.77;100430.41;6236355;28;20637;-65
2023/07/01 04:02:57;;;;;;;1.98;1.88;;;;;;;18.28;65.42;100417.41;6248828;28;20235;-67
2023/07/01 04:06:18;;;;;;;2.50;1.95;;;;;;;18.29;65.24;100427.28;6212282;28;21867;-66
2023/07/01 04:09:41;;;;;;;1.38;1.27;;;;;;;18.43;65.25;100415.44;6236396;28;20311;-65
2023/07/01 04:13:04;;;;;;;2.03;1.92;;;;;;;18.40;65.25;100410.34;6230796;28;20231;-65
2023/07/01 04:16:26;;;;;;;2.03;1.60;;;;;;;18.37;65.09;100405.31;6226106;28;20233;-66
2023/07/01 04:19:47;;;;;;;2.50;2.30;;;;;;;18.23;65.24;100406.25;6223964;28;20669;-67
2023/07/01 04:23:08;;;;;;;2.17;1.98;;;;;;;18.37;65.26;100402.56;6228777;28;20223;-66
2023/07/01 04:26:29;;;;;;;3.00;1.75;;;;;;;18.22;65.43;100390.91;6227105;28;20347;-66
2023/07/01 04:29:50;;;;;;;1.58;1.35;;;;;;;18.29;65.28;100380.88;6243153;28;20232;-66
2023/07/01 04:33:12;;;;;;;2.15;2.05;;;;;;;18.42;64.81;100383.69;6225009;28;20232;-65
2023/07/01 04:36:33;;;;;;;1.50;1.40;;;;;;;18.25;65.23;100383.16;6217158;28;20232;-67
2023/07/01 04:39:54;;;;;;;1.70;1.60;;;;;;;18.04;65.19;100393.28;6233630;28;20507;-65
2023/07/01 04:43:16;;;;;;;2.67;2.30;;;;;;;17.82;66.06;100392.41;6216777;28;20322;-65
2023/07/01 04:46:37;;;;;;;3.03;2.25;;;;;;;18.20;65.81;100376.59;6244793;28;20600;-68
2023/07/01 04:49:59;;;;;;;6.25;2.90;;;;;;;17.89;66.20;100384.31;6258633;28;20235;-66
2023/07/01 04:53:20;;;;;;;1.75;1.65;;;;;;;18.14;65.96;100380.97;6257109;28;20254;-66
2023/07/01 04:56:42;;;;;;;2.92;1.80;;;;;;;17.99;66.13;100374.75;6228343;28;21013;-65
2023/07/01 05:00:05;;;;;;;1.98;1.85;;;;;;;18.33;65.64;100357.63;6211396;28;20526;-65
2023/07/01 05:03:26;;;;;;;3.15;2.63;;;;;;;18.22;65.69;100359.00;6246778;28;20239;-66
2023/07/01 05:06:48;;;;;;;1.85;1.63;;;;;;;18.28;65.61;100366.41;6230633;28;20250;-66
2023/07/01 05:10:09;;;;;;;3.15;2.00;;;;;;;17.99;66.27;100360.25;6252364;28;20507;-64
2023/07/01 05:13:30;;;;;;;2.60;2.33;;;;;;;18.14;66.21;100352.84;6259112;28;20242;-66
2023/07/01 05:16:52;;;;;;;4.57;1.85;;;;;;;18.04;66.24;100364.09;6239483;28;20613;-66
2023/07/01 05:20:13;;;;;;;2.50;2.30;;;;;;;17.98;66.60;100361.31;6229889;28;21991;-67
2023/07/01 05:23:35;;;;;;;3.80;2.78;;;;;;;18.08;66.83;100359.94;6225596;28;20239;-67
2023/07/01 05:26:56;;;;;;;2.47;2.30;;;;;;;17.92;66.64;100367.56;6220220;28;20240;-65
2023/07/01 05:30:16;;;;;;;5.45;2.70;;;;;;;18.12;67.26;100372.16;6223095;28;20228;-67
2023/07/01 05:33:37;;;;;;;3.10;1.95;;;;;;;18.03;67.97;100358.81;6211780;28;20228;-65
2023/07/01 05:36:58;;;;;;;5.85;2.58;;;;;;;18.11;69.08;100364.13;6221078;28;20236;-65
2023/07/01 05:40:21;;;;;;;2.35;1.98;;;;;;;18.45;69.13;100361.50;6232631;28;20224;-66
2023/07/01 05:43:42;;;;;;;2.08;1.88;;;;;;;18.06;70.44;100362.03;6225113;28;20236;-66
2023/07/01 05:47:03;;;;;;;3.65;2.28;;;;;;;18.02;71.43;100362.63;6212658;28;20247;-66
2023/07/01 05:50:24;;;;;;;3.17;2.33;;;;;;;18.37;71.71;100364.38;6234161;28;20235;-65
2023/07/01 05:53:45;;;;;;;2.92;2.65;;;;;;;17.89;72.27;100360.59;6235485;28;20228;-66
2023/07/01 05:57:08;;;;;;;2.60;2.30;;;;;;;17.81;73.32;100360.75;6222894;28;20322;-65
2023/07/01 06:00:28;;;;;;;4.93;2.70;;;;;;;18.01;73.96;100363.63;6243067;28;20252;-67
2023/07/01 06:03:49;;;;;;;3.10;2.90;;;;;;;18.16;74.38;100358.94;6223634;28;20240;-65
2023/07/01 06:07:10;;;;;;;3.00;2.72;;;;;;;18.31;74.39;100341.41;6218429;28;20235;-66
2023/07/01 06:10:31;;;;;;;3.08;2.60;;;;;;;18.46;74.14;100343.25;6246305;28;20227;-66
2023/07/01 06:13:54;;;;;;;2.33;2.13;;;;;;;18.53;73.12;100344.97;6250642;28;20614;-66
2023/07/01 06:17:15;;;;;;;2.78;2.58;;;;;;;17.71;73.73;100354.75;6238940;28;20234;-65
2023/07/01 06:20:36;;;;;;;2.40;2.20;;;;;;;17.61;73.97;100348.78;6231837;28;20227;-66
2023/07/01 06:23:56;;;;;;;3.70;2.75;;;;;;;17.45;74.60;100343.56;6230313;28;20722;-66
2023/07/01 06:27:17;;;;;;;5.05;2.90;;;;;;;17.66;74.91;100335.44;6250632;28;20231;-66
2023/07/01 06:30:40;;;;;;;2.67;2.47;;;;;;;17.56;75.01;100332.19;6259971;28;20585;-66
2023/07/01 06:34:01;;;;;;;2.43;2.23;;;;;;;17.66;75.06;100315.50;6254258;28;20247;-65
2023/07/01 06:37:22;;;;;;;3.10;2.43;;;;;;;17.82;75.15;100307.88;6241222;28;20227;-66
2023/07/01 06:40:43;;;;;;;4.53;2.90;;;;;;;17.95;75.39;100304.41;6252599;28;20274;-67
2023/07/01 06:44:04;;;;;;;3.28;2.15;;;;;;;18.33;74.89;100292.97;6246167;28;20224;-66
2023/07/01 06:47:27;;;;;;;2.60;2.35;;;;;;;18.25;73.94;100295.81;6248321;28;20611;-66
2023/07/01 06:50:48;;;;;;;2.38;2.20;;;;;;;18.40;73.60;100287.50;6250725;28;20620;-66
2023/07/01 06:54:08;;;;;;;2.25;2.15;;;;;;;18.53;73.52;100289.50;6249135;28;20615;-66
2023/07/01 06:57:30;;;;;;;2.67;1.95;;;;;;;18.02;73.45;100280.78;6254656;28;20232;-64
2023/07/01 07:00:51;;;;;;;2.70;2.50;;;;;;;18.20;73.82;100289.28;6252840;28;20247;-66
2023/07/01 07:04:13;;;;;;;3.22;2.33;;;;;;;18.29;74.06;100285.38;6210482;28;20220;-67
2023/07/01 07:07:33;;;;;;;1.92;1.80;;;;;;;18.48;73.21;100298.34;6221253;28;20232;-65
2023/07/01 07:10:55;;;;;;;5.60;2.08;;;;;;;18.49;72.70;100283.63;6226335;28;20225;-66
2023/07/01 07:14:16;;;;;;;2.67;2.42;;;;;;;18.07;72.90;100287.31;6222657;28;20725;-66
2023/07/01 07:17:37;;;;;;;2.85;2.58;;;;;;;17.84;73.51;100280.41;6223915;28;20227;-66
2023/07/01 07:20:59;;;;;;;2.80;2.47;;;;;;;17.90;73.90;100283.19;6223013;28;20232;-66
2023/07/01 07:24:20;;;;;;;2.40;2.20;;;;;;;18.40;74.24;100286.69;6228269;28;20337;-65
2023/07/01 07:27:40;;;;;;;3.15;2.22;;;;;;;17.56;75.99;100274.94;6221044;28;20232;-65
2023/07/01 07:31:02;;;;;;;3.85;3.03;;;;;;;17.20;77.43;100269.53;6225156;28;20248;-64
2023/07/01 07:34:23;;;;;;;2.28;2.08;;;;;;;17.49;77.78;100266.69;6221205;28;20363;-66
2023/07/01 07:37:46;;;;;;;2.50;2.10;;;;;;;18.29;77.46;100266.25;6213936;28;20224;-65
2023/07/01 07:41:07;;;;;;;3.87;2.73;;;;;;;17.72;78.28;100263.75;6219407;28;20237;-66
2023/07/01 07:44:28;;;;;;;2.78;2.58;;;;;;;17.59;79.61;100263.63;6248281;28;20232;-65
2023/07/01 07:47:49;;;;;;;6.23;2.70;;;;;;;17.19;80.14;100267.81;6247986;28;20219;-66
2023/07/01 07:51:11;;;;;;;3.38;3.08;;;;;;;16.85;81.96;100270.38;6233496;28;20236;-66
2023/07/01 07:54:33;;;;;;;2.67;2.47;;;;;;;17.09;82.89;100258.28;6255588;28;20236;-65
2023/07/01 07:57:54;;;;;;;4.47;2.33;;;;;;;16.71;84.34;100268.50;6243688;28;20620;-66
2023/07/01 08:01:15;;;;;;;3.97;3.33;;;;;;;16.89;85.45;100266.25;6225198;28;20228;-65
2023/07/01 08:04:36;;;;;;;3.60;2.77;;;;;;;17.11;85.98;100251.59;6263010;28;20628;-66
2023/07/01 08:07:57;;;;;;;3.40;3.10;;;;;;;17.20;85.83;100258.63;6254778;28;20242;-66
2023/07/01 08:11:19;;;;;;;2.95;2.75;;;;;;;17.22;85.94;100255.69;6234390;28;20263;-65
2023/07/01 08:14:41;;;;;;;2.60;2.37;;;;;;;17.00;86.08;100254.81;6254682;28;20235;-65
2023/07/01 08:18:01;;;;;;;4.00;2.87;;;;;;;16.95;87.00;100251.84;6241652;28;20243;-66
2023/07/01 08:21:22;;;;;;;3.38;3.08;;;;;;;17.21;87.22;100257.56;6240590;28;20233;-67
2023/07/01 08:24:43;;;;;;;5.57;4.13;;;;;;;17.38;87.78;100247.25;6242571;28;20237;-66
2023/07/01 08:28:05;;;;;;;4.13;3.03;;;;;;;16.92;88.17;100249.50;6246731;28;20321;-69
2023/07/01 08:31:31;;;;;;;4.20;3.80;;;;;;;16.86;89.23;100239.38;6230772;28;21058;-68
2023/07/01 08:34:52;;;;;;;3.10;2.80;;;;;;;17.12;89.60;100247.84;6255746;28;20243;-68
2023/07/01 08:38:15;;;;;;;4.28;2.95;;;;;;;16.36;90.32;100256.53;6254710;28;20248;-68
2023/07/01 08:41:43;;;;;;;5.13;2.97;;;;;;;16.65;91.15;100261.09;6221311;28;20298;-67
2023/07/01 08:45:07;;;;;;;4.80;3.43;;;;;;;16.68;92.55;100247.97;6240939;28;20232;-68
2023/07/01 08:48:31;;;;;;;5.57;3.40;;;;;;;16.59;92.87;100234.66;6233141;28;20232;-67
2023/07/01 08:51:59;;;;;;;7.10;3.53;;;;;;;16.99;93.49;100235.97;6228132;28;20629;-67
2023/07/01 08:55:20;;;;;;;3.93;3.30;;;;;;;16.70;93.72;100240.47;6241288;28;20227;-68
2023/07/01 08:58:42;;;;;;;4.57;2.97;;;;;;;16.48;94.70;100240.56;6237484;28;20228;-68
2023/07/01 09:02:04;;;;;;;3.63;3.33;;;;;;;16.65;94.82;100237.47;6218797;28;20228;-68
2023/07/01 09:05:30;;;;;;;5.40;3.13;;;;;;;16.58;95.00;100230.25;6220706;28;20236;-69
2023/07/01 09:08:50;;;;;;;4.97;3.37;;;;;;;16.72;95.65;100221.22;6250394;28;20319;-67
2023/07/01 09:12:11;;;;;;;3.80;3.50;;;;;;;16.95;95.98;100221.91;6251900;28;20231;-68
2023/07/01 09:15:42;;;;;;;4.73;4.20;;;;;;;16.68;95.67;100226.22;6253722;28;20533;-67
2023/07/01 09:19:07;;;;;;;4.03;3.73;;;;;;;16.82;96.37;100226.34;6236841;28;20499;-68
2023/07/01 09:22:29;;;;;;;3.07;2.77;;;;;;;16.58;96.67;100224.81;6233515;28;20258;-69
2023/07/01 09:25:50;;;;;;;6.23;3.53;;;;;;;16.74;96.75;100216.41;6220873;28;20228;-68
2023/07/01 09:29:15;;;;;;;3.33;3.03;;;;;;;16.65;96.95;100220.28;6217467;28;20324;-68
2023/07/01 09:32:37;;;;;;;3.80;3.50;;;;;;;16.73;97.51;100217.44;6215605;28;20825;-68
2023/07/01 09:36:01;;;;;;;4.37;3.60;;;;;;;16.52;97.34;100222.88;6209136;28;20331;-67
2023/07/01 09:39:32;;;;;;;4.68;3.53;;;;;;;16.68;97.89;100219.91;6234047;28;20232;-67
2023/07/01 09:42:55;;;;;;;4.00;3.17;;;;;;;16.74;98.26;100220.00;6251359;28;20227;-67
2023/07/01 09:46:16;;;;;;;3.60;3.30;;;;;;;16.50;98.43;100209.44;6238392;28;20262;-68
2023/07/01 09:49:38;;;;;;;7.97;4.03;;;;;;;16.50;98.40;100217.59;6223602;28;20264;-67
2023/07/01 09:53:00;;;;;;;4.23;3.37;;;;;;;16.54;98.85;100205.28;6225642;28;22970;-67
2023/07/01 09:56:21;;;;;;;6.47;4.37;;;;;;;16.62;98.83;100198.91;6208923;28;20235;-68
2023/07/01 09:59:42;;;;;;;4.33;3.83;;;;;;;16.36;99.23;100214.84;6227089;28;20504;-68
2023/07/01 10:03:03;;;;;;;3.40;3.10;;;;;;;16.51;99.17;100191.22;6222408;28;20242;-67
2023/07/01 10:06:24;;;;;;;4.23;3.93;;;;;;;16.78;99.67;100199.50;6205700;28;20236;-66
2023/07/01 10:09:48;;;;;;;4.47;4.00;;;;;;;16.76;100.00;100196.16;6219064;28;20344;-68
2023/07/01 10:13:09;;;;;;;4.53;4.13;;;;;;;16.89;99.81;100192.72;6221764;28;20236;-67
2023/07/01 10:16:31;;;;;;;4.77;4.37;;;;;;;16.92;99.51;100181.41;6208188;28;20244;-69
2023/07/01 10:19:52;;;;;;;3.83;3.53;;;;;;;16.99;99.40;100179.63;6229758;28;20620;-68
2023/07/01 10:23:13;;;;;;;4.03;3.43;;;;;;;16.96;99.43;100190.06;6219421;28;20644;-67
2023/07/01 10:26:37;;;;;;;6.28;4.00;;;;;;;16.96;98.98;100180.00;6239330;28;20490;-68
2023/07/01 10:29:58;;;;;;;5.67;4.60;;;;;;;16.56;99.00;100178.72;6267710;28;20227;-67
2023/07/01 10:33:48;;;;;;;3.47;3.27;;;;;;;16.92;99.34;100175.16;6270923;28;20551;-68
2023/07/01 10:37:13;;;;;;;5.10;3.90;;;;;;;16.89;99.39;100164.66;6260455;28;20234;-68
2023/07/01 10:40:44;;;;;;;5.53;5.03;;;;;;;16.96;99.21;100166.38;6266034;28;20235;-68
2023/07/01 10:44:26;;;;;;;4.83;3.67;;;;;;;16.99;99.59;100171.44;6265808;28;20231;-67
2023/07/01 10:48:19;;;;;;;6.17;4.07;;;;;;;16.93;99.82;100169.50;6263736;28;20228;-67
2023/07/01 10:52:05;;;;;;;4.17;3.87;;;;;;;16.98;100.00;100167.03;6256976;28;20873;-68
2023/07/01 10:55:34;;;;;;;4.50;3.63;;;;;;;16.79;100.00;100164.97;6266172;28;20235;-68
2023/07/01 10:59:25;;;;;;;4.37;4.00;;;;;;;16.96;100.00;100163.66;6265547;28;20243;-68
2023/07/01 11:02:48;;;;;;;4.63;4.10;;;;;;;16.98;100.00;100164.31;6245933;28;20237;-68
2023/07/01 11:06:10;;;;;;;4.57;4.17;;;;;;;16.94;100.00;100154.03;6234189;28;20236;-68
2023/07/01 11:09:32;;;;;;;4.33;3.93;;;;;;;17.04;100.00;100152.66;6234307;28;20232;-67
2023/07/01 11:13:00;;;;;;;4.40;4.00;;;;;;;16.83;100.00;100162.69;6237842;28;20620;-67
2023/07/01 11:16:21;;;;;;;4.93;4.53;;;;;;;16.85;100.00;100153.31;6219174;28;20345;-69
2023/07/01 11:19:45;;;;;;;4.47;4.07;;;;;;;17.03;100.00;100156.41;6246409;28;20228;-67
2023/07/01 11:23:06;;;;;;;4.13;3.83;;;;;;;17.03;100.00;100145.50;6232802;28;20343;-68
2023/07/01 11:26:29;;;;;;;6.17;4.87;;;;;;;17.24;100.00;100156.38;6245803;28;20254;-67
2023/07/01 11:29:50;;;;;;;7.37;4.13;;;;;;;17.20;100.00;100149.66;6262322;28;20232;-68
2023/07/01 11:33:12;;;;;;;4.13;3.83;;;;;;;16.91;100.00;100144.34;6262661;28;20223;-69
2023/07/01 11:36:37;;;;;;;5.23;4.60;;;;;;;17.17;100.00;100149.19;6246301;28;20228;-67
2023/07/01 11:39:58;;;;;;;6.00;4.53;;;;;;;17.01;100.00;100147.59;6263483;28;20228;-69
2023/07/01 11:43:21;;;;;;;4.70;4.27;;;;;;;17.05;100.00;100142.59;6253869;28;20246;-69
2023/07/01 11:46:43;;;;;;;6.60;4.40;;;;;;;17.28;100.00;100138.59;6249105;28;20457;-67
2023/07/01 11:50:05;;;;;;;5.03;4.53;;;;;;;17.51;100.00;100141.97;6258393;28;20227;-68
2023/07/01 11:53:27;;;;;;;4.20;3.80;;;;;;;17.19;100.00;100141.69;6265618;28;20230;-68
2023/07/01 11:56:50;;;;;;;3.63;3.33;;;;;;;17.37;100.00;100140.16;6237276;28;20230;-67
2023/07/01 12:00:28;;;;;;;3.77;3.47;;;;;;;17.20;100.00;100141.47;6247227;28;20232;-67
2023/07/01 12:03:49;;;;;;;4.87;4.47;;;;;;;17.24;100.00;100142.78;6242764;28;20231;-68
2023/07/01 12:07:12;;;;;;;4.38;4.00;;;;;;;17.18;100.00;100140.84;6245197;28;20231;-69
2023/07/01 12:10:38;;;;;;;6.90;4.03;;;;;;;17.30;100.00;100139.25;6246227;28;20322;-68
2023/07/01 12:14:17;;;;;;;4.47;3.60;;;;;;;17.38;100.00;100144.56;6233346;28;20244;-69
2023/07/01 12:17:38;;;;;;;3.47;3.27;;;;;;;17.24;100.00;100145.50;6216064;28;20281;-69
2023/07/01 12:20:59;;;;;;;4.67;3.97;;;;;;;17.48;100.00;100141.50;6224269;28;20674;-68
2023/07/01 12:24:21;;;;;;;3.80;3.50;;;;;;;17.30;100.00;100138.41;6218520;28;20602;-68
2023/07/01 12:27:43;;;;;;;6.83;3.80;;;;;;;17.54;100.00;100143.47;6226293;28;20613;-67
2023/07/01 12:31:05;;;;;;;3.90;3.67;;;;;;;17.40;100.00;100131.56;6235091;28;20244;-68
2023/07/01 12:34:26;;;;;;;4.30;4.00;;;;;;;17.44;100.00;100132.00;6228734;28;20255;-67
2023/07/01 12:37:48;;;;;;;3.90;3.60;;;;;;;17.52;100.00;100126.47;6246902;28;20231;-68
2023/07/01 12:41:10;;;;;;;4.30;4.00;;;;;;;17.70;100.00;100125.94;6242991;28;20235;-67
2023/07/01 12:44:32;;;;;;;3.47;3.23;;;;;;;17.55;100.00;100132.34;6252617;28;20790;-67
2023/07/01 12:47:54;;;;;;;3.77;3.47;;;;;;;17.63;100.00;100130.53;6248760;28;20220;-68
2023/07/01 12:51:15;;;;;;;3.50;3.30;;;;;;;17.97;100.00;100123.16;6232774;28;20327;-68
2023/07/01 12:54:38;;;;;;;4.20;3.90;;;;;;;17.91;100.00;100128.56;6259433;28;20753;-67
2023/07/01 12:57:59;;;;;;;3.77;3.50;;;;;;;17.87;100.00;100125.41;6245416;28;20660;-68
2023/07/01 13:01:21;;;;;;;3.20;3.00;;;;;;;18.15;100.00;100130.78;6235072;28;20239;-68
2023/07/01 13:04:42;;;;;;;3.42;3.13;;;;;;;17.75;100.00;100127.03;6250437;28;20228;-68
2023/07/01 13:08:04;;;;;;;4.67;3.00;;;;;;;17.79;100.00;100125.59;6236488;28;20238;-68
2023/07/01 13:11:27;;;;;;;3.17;2.70;;;;;;;17.92;100.00;100113.91;6232855;28;20318;-69
2023/07/01 13:14:48;;;;;;;3.47;3.28;;;;;;;17.96;100.00;100109.72;6254707;28;20236;-69
2023/07/01 13:18:10;;;;;;;2.50;2.40;;;;;;;17.91;100.00;100104.88;6244143;28;20302;-68
2023/07/01 13:21:37;;;;;;;3.70;3.40;;;;;;;18.07;100.00;100107.25;6241641;28;20227;-69
2023/07/01 13:24:58;;;;;;;3.53;3.17;;;;;;;17.86;100.00;100101.91;6256623;28;20248;-68
2023/07/01 13:28:20;;;;;;;6.27;2.67;;;;;;;17.88;100.00;100112.59;6253850;28;20235;-69
2023/07/01 13:31:42;;;;;;;1.98;1.88;;;;;;;17.80;100.00;100118.22;6235848;28;20238;-68
2023/07/01 13:35:06;;;;;;;2.60;2.40;;;;;;;17.94;100.00;100098.19;6256203;28;20537;-68
2023/07/01 13:38:27;;;;;;;2.92;2.38;;;;;;;18.00;100.00;100103.66;6241948;28;20231;-68
2023/07/01 13:41:47;;;;;;;2.08;1.98;;;;;;;17.89;100.00;100098.78;6224541;28;20781;-69
2023/07/01 13:45:23;;;;;;;2.03;1.92;;;;;;;17.88;100.00;100099.81;6242088;28;20614;-68
2023/07/01 13:48:44;;;;;;;1.95;1.85;;;;;;;17.95;100.00;100102.59;6253117;28;20883;-68
2023/07/01 13:52:07;;;;;;;1.90;1.80;;;;;;;17.91;100.00;100096.69;6245766;28;20230;-69
2023/07/01 13:55:28;;;;;;;2.70;2.60;;;;;;;18.04;100.00;100091.31;6256161;28;20516;-68
2023/07/01 13:58:48;;;;;;;3.33;3.13;;;;;;;18.14;100.00;100090.91;6257140;28;20729;-69
2023/07/01 14:02:11;;;;;;;3.00;2.80;;;;;;;18.14;100.00;100093.66;6250093;28;20236;-68
2023/07/01 14:05:35;;;;;;;2.85;2.65;;;;;;;18.25;100.00;100096.63;6264065;28;20271;-68
2023/07/01 14:08:57;;;;;;;3.47;2.38;;;;;;;18.20;100.00;100082.75;6261768;28;20231;-68
2023/07/01 14:12:19;;;;;;;2.22;2.13;;;;;;;17.95;100.00;100087.06;6252472;28;20235;-69
2023/07/01 14:15:42;;;;;;;5.90;2.80;;;;;;;18.02;100.00;100089.81;6261060;28;20227;-68
2023/07/01 14:19:04;;;;;;;2.83;2.63;;;;;;;17.95;100.00;100092.53;6259748;28;20236;-69
2023/07/01 14:22:26;;;;;;;3.45;3.25;;;;;;;18.08;100.00;100083.56;6238122;28;20321;-68
2023/07/01 14:25:50;;;;;;;3.22;2.97;;;;;;;18.01;100.00;100093.59;6215669;28;20240;-67
2023/07/01 14:29:15;;;;;;;3.30;3.10;;;;;;;18.16;100.00;100080.66;6226928;28;20228;-69
2023/07/01 14:32:36;;;;;;;2.90;2.70;;;;;;;18.02;100.00;100079.72;6216885;28;21799;-68
2023/07/01 14:35:57;;;;;;;3.15;2.90;;;;;;;18.15;100.00;100070.75;6248950;28;20296;-68
2023/07/01 14:39:37;;;;;;;4.07;3.80;;;;;;;18.10;100.00;100089.66;6240610;28;20527;-67
2023/07/01 14:43:06;;;;;;;3.78;3.47;;;;;;;18.10;100.00;100082.31;6260004;28;20350;-68
2023/07/01 14:46:29;;;;;;;2.77;2.67;;;;;;;18.01;100.00;100079.94;6246089;28;20231;-68
2023/07/01 14:49:50;;;;;;;3.75;3.45;;;;;;;18.07;100.00;100077.25;6235169;28;20229;-67
2023/07/01 14:53:10;;;;;;;2.90;2.70;;;;;;;18.02;100.00;100082.47;6234345;28;20243;-69
2023/07/01 14:56:31;;;;;;;3.22;2.95;;;;;;;18.16;100.00;100083.38;6218473;28;20224;-67
2023/07/01 14:59:54;;;;;;;2.50;2.30;;;;;;;18.01;100.00;100077.22;6230229;28;20229;-68
2023/07/01 15:03:15;;;;;;;2.87;2.67;;;;;;;18.21;100.00;100078.97;6230192;28;20239;-68
2023/07/01 15:06:36;;;;;;;3.27;3.07;;;;;;;17.99;100.00;100079.31;6223706;28;20224;-69
2023/07/01 15:09:56;;;;;;;2.58;2.40;;;;;;;18.06;100.00;100075.59;6230867;28;20233;-68
2023/07/01 15:13:17;;;;;;;3.70;3.47;;;;;;;18.07;100.00;100071.78;6218812;28;20240;-69
2023/07/01 15:16:42;;;;;;;2.50;2.30;;;;;;;18.15;100.00;100076.22;6219162;28;20243;-67
2023/07/01 15:20:03;;;;;;;2.90;2.70;;;;;;;18.23;100.00;100076.88;6256246;28;20294;-67
2023/07/01 15:23:24;;;;;;;2.80;2.55;;;;;;;18.09;100.00;100075.16;6228536;28;20232;-68
2023/07/01 15:26:45;;;;;;;2.50;2.30;;;;;;;18.04;100.00;100074.94;6220778;28;20224;-68
2023/07/01 15:30:08;;;;;;;2.80;2.60;;;;;;;18.11;100.00;100070.34;6261792;28;20236;-68
2023/07/01 15:33:30;;;;;;;2.30;2.10;;;;;;;18.16;100.00;100061.53;6252418;28;20243;-69
2023/07/01 15:36:53;;;;;;;2.30;2.20;;;;;;;18.10;100.00;100062.38;6241805;28;20338;-69